createdAt,value
2019-05-25T00:02:18.863Z,9.83
2019-05-25T00:04:47.586Z,9.76
2019-05-25T00:07:16.384Z,9.73
2019-05-25T00:09:48.190Z,9.69
2019-05-25T00:12:15.061Z,9.65
2019-05-25T00:14:43.668Z,9.61
2019-05-25T00:17:12.252Z,9.57
2019-05-25T00:19:40.820Z,9.52
2019-05-25T00:22:09.268Z,9.48
2019-05-25T00:24:37.774Z,9.44
2019-05-25T00:27:06.287Z,9.39
2019-05-25T00:29:34.837Z,9.35
2019-05-25T00:32:03.362Z,9.33
2019-05-25T00:34:31.898Z,9.30
2019-05-25T00:37:00.513Z,9.26
2019-05-25T00:39:29.038Z,9.23
2019-05-25T00:41:57.651Z,9.19
2019-05-25T00:44:26.092Z,9.16
2019-05-25T00:46:54.773Z,9.15
2019-05-25T00:49:23.300Z,9.12
2019-05-25T00:51:51.949Z,9.08
2019-05-25T00:54:27.963Z,9.07
2019-05-25T00:56:50.688Z,9.04
2019-05-25T00:59:19.266Z,9.03
2019-05-25T01:01:47.812Z,9.01
2019-05-25T01:04:16.434Z,9.00
2019-05-25T01:06:45.045Z,8.99
2019-05-25T01:09:13.576Z,8.97
2019-05-25T01:11:42.019Z,8.95
2019-05-25T01:14:10.624Z,8.95
2019-05-25T01:16:39.217Z,8.93
2019-05-25T01:19:07.722Z,8.94
2019-05-25T01:21:36.337Z,8.91
2019-05-25T01:24:05.122Z,8.92
2019-05-25T01:26:33.703Z,8.93
2019-05-25T01:29:02.390Z,8.93
2019-05-25T01:31:33.600Z,8.94
2019-05-25T01:34:02.193Z,8.95
2019-05-25T01:36:30.737Z,8.95
2019-05-25T01:38:59.282Z,8.97
2019-05-25T01:41:27.755Z,8.97
2019-05-25T01:43:56.274Z,8.98
2019-05-25T01:46:24.854Z,9.02
2019-05-25T01:48:53.449Z,9.05
2019-05-25T01:51:21.965Z,9.10
2019-05-25T01:53:50.555Z,9.14
2019-05-25T01:56:19.246Z,9.18
2019-05-25T01:58:47.821Z,9.23
2019-05-25T02:01:16.401Z,9.27
2019-05-25T02:03:45.111Z,9.32
2019-05-25T02:06:13.562Z,9.36
2019-05-25T02:08:42.020Z,9.39
2019-05-25T02:11:10.557Z,9.43
2019-05-25T02:13:39.170Z,9.43
2019-05-25T02:16:07.756Z,9.43
2019-05-25T02:18:36.244Z,9.41
2019-05-25T02:21:04.870Z,9.38
2019-05-25T02:23:33.381Z,9.36
2019-05-25T02:26:01.942Z,9.33
2019-05-25T02:28:30.540Z,9.31
2019-05-25T02:30:58.977Z,9.28
2019-05-25T02:33:27.567Z,9.26
2019-05-25T02:35:56.088Z,9.22
2019-05-25T02:38:24.682Z,9.18
2019-05-25T02:40:53.203Z,9.13
2019-05-25T02:43:21.803Z,9.06
2019-05-25T02:45:50.320Z,9.00
2019-05-25T02:48:18.840Z,8.94
2019-05-25T02:50:47.622Z,8.86
2019-05-25T02:53:16.165Z,8.79
2019-05-25T02:55:44.750Z,8.71
2019-05-25T02:58:13.297Z,8.64
2019-05-25T03:00:41.879Z,8.57
2019-05-25T03:03:10.409Z,8.50
2019-05-25T03:05:39.082Z,8.43
2019-05-25T03:08:07.625Z,8.38
2019-05-25T03:10:37.316Z,8.31
2019-05-25T03:13:05.978Z,8.25
2019-05-25T03:15:34.587Z,8.19
2019-05-25T03:18:03.644Z,8.15
2019-05-25T03:20:32.501Z,8.09
2019-05-25T03:23:01.112Z,8.06
2019-05-25T03:25:29.571Z,8.05
2019-05-25T03:27:58.082Z,8.07
2019-05-25T03:30:32.430Z,8.15
2019-05-25T03:33:01.082Z,8.28
2019-05-25T03:35:29.850Z,8.45
2019-05-25T03:37:58.381Z,8.65
2019-05-25T03:40:27.042Z,8.87
2019-05-25T03:42:55.672Z,9.12
2019-05-25T03:45:24.185Z,9.37
2019-05-25T03:47:52.800Z,9.64
2019-05-25T03:50:21.353Z,9.86
2019-05-25T03:52:50.010Z,10.07
2019-05-25T03:55:18.902Z,10.24
2019-05-25T03:57:47.490Z,10.40
2019-05-25T04:00:16.912Z,10.53
2019-05-25T04:02:45.527Z,10.65
2019-05-25T04:05:14.053Z,10.76
2019-05-25T04:07:42.616Z,10.84
2019-05-25T04:10:11.439Z,10.91
2019-05-25T04:12:39.976Z,10.98
2019-05-25T04:15:08.991Z,11.02
2019-05-25T04:17:37.558Z,11.06
2019-05-25T04:20:07.036Z,11.05
2019-05-25T04:22:35.516Z,11.02
2019-05-25T04:25:05.146Z,10.97
2019-05-25T04:27:33.673Z,10.97
2019-05-25T04:30:02.591Z,10.99
2019-05-25T04:32:31.112Z,11.05
2019-05-25T04:34:59.576Z,11.09
2019-05-25T04:37:28.160Z,11.14
2019-05-25T04:39:56.714Z,11.20
2019-05-25T04:42:25.312Z,11.25
2019-05-25T04:44:53.920Z,11.29
2019-05-25T04:47:26.887Z,11.34
2019-05-25T04:49:52.975Z,11.40
2019-05-25T04:52:21.560Z,11.42
2019-05-25T04:54:50.049Z,11.47
2019-05-25T04:57:18.586Z,11.50
2019-05-25T04:59:47.162Z,11.54
2019-05-25T05:02:15.764Z,11.59
2019-05-25T05:04:44.288Z,11.62
2019-05-25T05:07:12.901Z,11.66
2019-05-25T05:09:41.433Z,11.71
2019-05-25T05:12:10.109Z,11.76
2019-05-25T05:14:38.697Z,11.82
2019-05-25T05:17:07.312Z,11.87
2019-05-25T05:19:35.932Z,11.92
2019-05-25T05:22:05.929Z,11.95
2019-05-25T05:24:34.716Z,11.99
2019-05-25T05:27:03.237Z,12.01
2019-05-25T05:29:31.757Z,12.01
2019-05-25T05:32:00.337Z,12.03
2019-05-25T05:34:28.985Z,12.07
2019-05-25T05:36:58.305Z,12.10
2019-05-25T05:39:28.269Z,12.14
2019-05-25T05:41:58.866Z,12.17
2019-05-25T05:44:28.351Z,12.20
2019-05-25T05:46:59.926Z,12.25
2019-05-25T05:49:30.705Z,12.31
2019-05-25T05:52:02.661Z,12.35
2019-05-25T05:54:32.510Z,12.39
2019-05-25T05:57:11.811Z,12.45
2019-05-25T05:59:31.415Z,12.49
2019-05-25T06:01:59.965Z,12.56
2019-05-25T06:04:28.481Z,12.60
2019-05-25T06:06:57.233Z,12.65
2019-05-25T06:09:25.747Z,12.71
2019-05-25T06:11:54.461Z,12.78
2019-05-25T06:14:22.979Z,12.84
2019-05-25T06:16:51.499Z,12.92
2019-05-25T06:19:20.128Z,13.03
2019-05-25T06:21:48.603Z,13.17
2019-05-25T06:24:17.119Z,13.29
2019-05-25T06:26:45.563Z,13.41
2019-05-25T06:29:14.043Z,13.50
2019-05-25T06:31:42.629Z,13.56
2019-05-25T06:34:11.235Z,13.66
2019-05-25T06:36:39.758Z,13.71
2019-05-25T06:39:08.671Z,13.83
2019-05-25T06:41:37.201Z,13.96
2019-05-25T06:44:06.326Z,14.04
2019-05-25T06:46:34.757Z,14.05
2019-05-25T06:49:03.343Z,14.11
2019-05-25T06:51:31.859Z,14.18
2019-05-25T06:54:00.445Z,14.23
2019-05-25T06:56:28.906Z,14.31
2019-05-25T06:58:57.493Z,14.39
2019-05-25T07:01:26.219Z,14.44
2019-05-25T07:03:55.148Z,14.49
2019-05-25T07:06:23.828Z,14.53
2019-05-25T07:08:52.801Z,14.59
2019-05-25T07:11:21.458Z,14.72
2019-05-25T07:13:50.273Z,14.92
2019-05-25T07:16:19.316Z,15.20
2019-05-25T07:18:47.994Z,15.47
2019-05-25T07:21:16.662Z,15.79
2019-05-25T07:23:45.271Z,16.24
2019-05-25T07:26:13.809Z,16.73
2019-05-25T07:28:42.690Z,17.25
2019-05-25T07:31:11.347Z,17.65
2019-05-25T07:33:39.965Z,17.81
2019-05-25T07:36:08.556Z,17.86
2019-05-25T07:38:37.149Z,17.85
2019-05-25T07:41:05.766Z,17.77
2019-05-25T07:43:34.219Z,17.61
2019-05-25T07:46:02.983Z,17.53
2019-05-25T07:48:31.572Z,17.42
2019-05-25T07:51:00.094Z,17.40
2019-05-25T07:53:28.737Z,17.33
2019-05-25T07:55:57.323Z,17.25
2019-05-25T07:58:25.920Z,17.17
2019-05-25T08:00:54.526Z,17.18
2019-05-25T08:03:23.228Z,17.27
2019-05-25T08:05:51.966Z,17.39
2019-05-25T08:08:20.550Z,17.51
2019-05-25T08:10:49.222Z,17.53
2019-05-25T08:13:17.826Z,17.50
2019-05-25T08:15:46.411Z,17.75
2019-05-25T08:18:14.995Z,18.69
2019-05-25T08:20:46.939Z,19.69
2019-05-25T08:23:13.914Z,20.38
2019-05-25T08:25:42.735Z,20.92
2019-05-25T08:28:11.318Z,20.92
2019-05-25T08:30:39.935Z,21.00
2019-05-25T08:33:08.591Z,20.97
2019-05-25T08:35:37.200Z,20.95
2019-05-25T08:38:05.734Z,20.69
2019-05-25T08:40:34.244Z,20.41
2019-05-25T08:43:02.800Z,20.00
2019-05-25T08:45:31.320Z,19.78
2019-05-25T08:47:59.922Z,19.54
2019-05-25T08:50:37.790Z,19.59
2019-05-25T08:52:59.071Z,19.89
2019-05-25T08:55:27.709Z,20.23
2019-05-25T08:57:56.304Z,20.46
2019-05-25T09:00:25.059Z,20.61
2019-05-25T09:02:53.742Z,20.32
2019-05-25T09:05:22.510Z,20.31
2019-05-25T09:07:51.024Z,20.64
2019-05-25T09:10:19.601Z,20.70
2019-05-25T09:12:48.158Z,20.70
2019-05-25T09:15:16.774Z,20.69
2019-05-25T09:17:45.231Z,20.89
2019-05-25T09:20:14.228Z,21.05
2019-05-25T09:22:42.670Z,21.18
2019-05-25T09:25:11.683Z,21.62
2019-05-25T09:27:40.252Z,21.95
2019-05-25T09:30:09.940Z,22.06
2019-05-25T09:32:38.525Z,22.07
2019-05-25T09:35:08.576Z,22.05
2019-05-25T09:37:37.060Z,21.87
2019-05-25T09:40:06.919Z,22.14
2019-05-25T09:42:35.584Z,22.68
2019-05-25T09:45:07.115Z,23.16
2019-05-25T09:47:35.972Z,23.54
2019-05-25T09:50:06.444Z,23.63
2019-05-25T09:52:35.025Z,23.36
2019-05-25T09:55:05.516Z,22.74
2019-05-25T09:57:34.063Z,22.23
2019-05-25T10:00:02.838Z,22.20
2019-05-25T10:02:31.298Z,22.46
2019-05-25T10:05:00.068Z,22.66
2019-05-25T10:07:28.663Z,23.00
2019-05-25T10:09:57.261Z,23.06
2019-05-25T10:12:26.014Z,22.93
2019-05-25T10:14:54.598Z,22.65
2019-05-25T10:17:23.197Z,22.30
2019-05-25T10:19:51.818Z,22.06
2019-05-25T10:22:20.438Z,21.89
2019-05-25T10:24:49.162Z,21.96
2019-05-25T10:27:17.997Z,22.01
2019-05-25T10:29:47.014Z,22.00
2019-05-25T10:32:15.909Z,22.09
2019-05-25T10:34:44.702Z,22.61
2019-05-25T10:37:13.987Z,23.32
2019-05-25T10:39:42.777Z,23.96
2019-05-25T10:42:11.473Z,23.96
2019-05-25T10:44:40.039Z,23.79
2019-05-25T10:47:08.560Z,23.56
2019-05-25T10:49:37.318Z,23.49
2019-05-25T10:52:06.110Z,23.34
2019-05-25T10:54:34.700Z,23.06
2019-05-25T10:57:03.703Z,22.74
2019-05-25T10:59:32.326Z,22.43
2019-05-25T11:02:00.954Z,22.06
2019-05-25T11:04:29.730Z,21.74
2019-05-25T11:06:58.443Z,21.58
2019-05-25T11:09:27.579Z,21.44
2019-05-25T11:11:56.509Z,21.29
2019-05-25T11:14:25.314Z,21.13
2019-05-25T11:16:53.961Z,21.00
2019-05-25T11:19:24.271Z,21.16
2019-05-25T11:21:52.833Z,21.44
2019-05-25T11:24:21.630Z,21.47
2019-05-25T11:26:50.286Z,21.28
2019-05-25T11:29:18.953Z,21.04
2019-05-25T11:31:55.309Z,20.85
2019-05-25T11:34:17.855Z,20.70
2019-05-25T11:36:46.443Z,20.85
2019-05-25T11:39:14.951Z,20.94
2019-05-25T11:41:43.470Z,21.08
2019-05-25T11:44:11.914Z,21.18
2019-05-25T11:46:40.505Z,21.28
2019-05-25T11:49:21.677Z,21.49
2019-05-25T11:51:39.439Z,22.01
2019-05-25T11:54:08.027Z,22.40
2019-05-25T11:56:36.622Z,22.63
2019-05-25T11:59:05.343Z,22.91
2019-05-25T12:01:33.863Z,22.98
2019-05-25T12:04:02.446Z,22.84
2019-05-25T12:06:31.277Z,22.63
2019-05-25T12:08:59.905Z,22.49
2019-05-25T12:11:28.751Z,22.37
2019-05-25T12:13:57.199Z,22.34
2019-05-25T12:16:26.109Z,22.46
2019-05-25T12:18:54.561Z,22.36
2019-05-25T12:21:23.540Z,22.19
2019-05-25T12:23:52.061Z,22.06
2019-05-25T12:26:20.679Z,21.98
2019-05-25T12:28:49.300Z,21.99
2019-05-25T12:31:18.436Z,22.11
2019-05-25T12:33:47.413Z,22.44
2019-05-25T12:36:16.402Z,22.80
2019-05-25T12:38:45.018Z,22.96
2019-05-25T12:41:13.609Z,22.82
2019-05-25T12:43:42.268Z,22.70
2019-05-25T12:46:10.946Z,22.69
2019-05-25T12:48:39.732Z,22.97
2019-05-25T12:51:08.336Z,23.31
2019-05-25T12:53:37.121Z,23.60
2019-05-25T12:56:06.669Z,23.85
2019-05-25T12:58:35.261Z,24.19
2019-05-25T13:01:03.965Z,24.41
2019-05-25T13:03:32.656Z,24.48
2019-05-25T13:06:01.506Z,24.49
2019-05-25T13:08:30.471Z,24.42
2019-05-25T13:10:59.541Z,24.22
2019-05-25T13:13:28.253Z,24.23
2019-05-25T13:15:57.683Z,24.21
2019-05-25T13:18:26.635Z,24.09
2019-05-25T13:20:55.619Z,24.02
2019-05-25T13:23:24.261Z,23.98
2019-05-25T13:25:53.060Z,23.92
2019-05-25T13:28:21.734Z,23.98
2019-05-25T13:30:50.344Z,24.13
2019-05-25T13:33:19.607Z,24.24
2019-05-25T13:35:48.239Z,24.38
2019-05-25T13:38:16.821Z,24.47
2019-05-25T13:40:45.467Z,24.31
2019-05-25T13:43:14.136Z,24.21
2019-05-25T13:45:45.910Z,24.14
2019-05-25T13:48:13.177Z,24.06
2019-05-25T13:50:41.883Z,23.93
2019-05-25T13:53:10.961Z,23.90
2019-05-25T13:55:39.566Z,23.73
2019-05-25T13:58:08.092Z,23.44
2019-05-25T14:00:36.718Z,23.05
2019-05-25T14:03:05.507Z,22.83
2019-05-25T14:05:34.281Z,23.09
2019-05-25T14:08:02.981Z,23.39
2019-05-25T14:10:31.882Z,23.59
2019-05-25T14:13:01.072Z,23.72
2019-05-25T14:15:30.181Z,23.53
2019-05-25T14:17:59.464Z,23.11
2019-05-25T14:20:27.985Z,22.71
2019-05-25T14:22:56.754Z,22.52
2019-05-25T14:25:26.814Z,22.53
2019-05-25T14:27:56.091Z,22.59
2019-05-25T14:30:25.484Z,22.69
2019-05-25T14:32:54.156Z,22.81
2019-05-25T14:35:22.788Z,22.97
2019-05-25T14:37:51.384Z,23.08
2019-05-25T14:40:20.157Z,23.17
2019-05-25T14:42:48.790Z,22.97
2019-05-25T14:45:17.611Z,22.74
2019-05-25T14:47:46.212Z,22.66
2019-05-25T14:50:15.225Z,22.68
2019-05-25T14:52:43.826Z,22.76
2019-05-25T14:55:12.819Z,22.85
2019-05-25T14:57:41.351Z,22.89
2019-05-25T15:00:11.943Z,22.76
2019-05-25T15:02:40.948Z,22.62
2019-05-25T15:05:10.229Z,22.68
2019-05-25T15:07:38.836Z,22.72
2019-05-25T15:10:10.761Z,22.82
2019-05-25T15:12:39.457Z,22.93
2019-05-25T15:15:09.458Z,22.95
2019-05-25T15:17:38.365Z,22.91
2019-05-25T15:20:10.667Z,22.77
2019-05-25T15:22:39.259Z,22.76
2019-05-25T15:25:09.033Z,22.76
2019-05-25T15:27:37.616Z,22.69
2019-05-25T15:30:07.939Z,22.58
2019-05-25T15:32:36.722Z,22.47
2019-05-25T15:35:06.817Z,22.27
2019-05-25T15:37:35.506Z,22.11
2019-05-25T15:40:05.739Z,21.99
2019-05-25T15:42:34.291Z,22.01
2019-05-25T15:45:02.809Z,21.98
2019-05-25T15:47:31.256Z,22.01
2019-05-25T15:49:59.891Z,21.94
2019-05-25T15:52:28.472Z,21.83
2019-05-25T15:54:57.141Z,21.76
2019-05-25T15:57:25.612Z,21.65
2019-05-25T15:59:54.131Z,21.45
2019-05-25T16:02:36.285Z,21.16
2019-05-25T16:04:53.283Z,20.96
2019-05-25T16:07:21.867Z,20.82
2019-05-25T16:09:50.599Z,20.76
2019-05-25T16:12:19.199Z,20.60
2019-05-25T16:14:47.712Z,20.49
2019-05-25T16:17:16.310Z,20.40
2019-05-25T16:19:44.835Z,20.31
2019-05-25T16:22:13.422Z,20.24
2019-05-25T16:24:42.025Z,20.08
2019-05-25T16:27:10.548Z,19.90
2019-05-25T16:29:39.171Z,19.82
2019-05-25T16:32:07.693Z,19.77
2019-05-25T16:34:36.329Z,19.69
2019-05-25T16:37:05.434Z,19.59
2019-05-25T16:39:34.083Z,19.49
2019-05-25T16:42:02.681Z,19.38
2019-05-25T16:44:31.223Z,19.31
2019-05-25T16:47:00.188Z,19.28
2019-05-25T16:49:28.816Z,19.30
2019-05-25T16:51:57.423Z,19.30
2019-05-25T16:54:26.065Z,19.34
2019-05-25T16:56:54.986Z,19.39
2019-05-25T16:59:23.525Z,19.41
2019-05-25T17:01:52.077Z,19.40
2019-05-25T17:04:20.686Z,19.44
2019-05-25T17:06:49.350Z,19.44
2019-05-25T17:09:17.899Z,19.42
2019-05-25T17:11:46.527Z,19.39
2019-05-25T17:14:15.017Z,19.36
2019-05-25T17:16:43.732Z,19.27
2019-05-25T17:19:12.530Z,19.14
2019-05-25T17:21:41.530Z,19.04
2019-05-25T17:24:10.151Z,18.97
2019-05-25T17:26:39.022Z,18.90
2019-05-25T17:29:07.639Z,18.85
2019-05-25T17:31:36.559Z,18.82
2019-05-25T17:34:05.268Z,18.78
2019-05-25T17:36:33.876Z,18.75
2019-05-25T17:39:02.809Z,18.71
2019-05-25T17:41:31.323Z,18.67
2019-05-25T17:43:59.824Z,18.62
2019-05-25T17:46:28.664Z,18.57
2019-05-25T17:48:57.319Z,18.51
2019-05-25T17:51:26.079Z,18.45
2019-05-25T17:53:54.818Z,18.40
2019-05-25T17:56:24.598Z,18.36
2019-05-25T17:58:53.495Z,18.28
2019-05-25T18:01:22.100Z,18.19
2019-05-25T18:04:05.620Z,18.10
2019-05-25T18:06:21.226Z,18.03
2019-05-25T18:08:50.288Z,17.96
2019-05-25T18:11:19.089Z,17.87
2019-05-25T18:13:48.320Z,17.77
2019-05-25T18:16:17.559Z,17.68
2019-05-25T18:18:47.991Z,17.59
2019-05-25T18:21:18.210Z,17.49
2019-05-25T18:23:48.388Z,17.37
2019-05-25T18:26:18.123Z,17.27
2019-05-25T18:28:48.205Z,17.18
2019-05-25T18:31:18.958Z,17.08
2019-05-25T18:33:49.929Z,16.99
2019-05-25T18:36:20.177Z,16.90
2019-05-25T18:38:51.064Z,16.79
2019-05-25T18:41:38.700Z,16.69
2019-05-25T18:44:08.631Z,16.60
2019-05-25T18:46:38.889Z,16.49
2019-05-25T18:49:08.489Z,16.42
2019-05-25T18:51:38.617Z,16.33
2019-05-25T18:54:09.200Z,16.25
2019-05-25T18:56:40.112Z,16.14
2019-05-25T18:59:11.066Z,16.05
2019-05-25T19:02:35.254Z,15.94
2019-05-25T19:05:07.433Z,15.85
2019-05-25T19:07:38.249Z,15.70
2019-05-25T19:10:12.923Z,15.63
2019-05-25T19:12:42.238Z,15.52
2019-05-25T19:15:13.567Z,15.38
2019-05-25T19:17:43.897Z,15.29
2019-05-25T19:20:20.649Z,15.22
2019-05-25T19:22:49.099Z,15.14
2019-05-25T19:25:20.270Z,15.06
2019-05-25T19:27:51.493Z,14.97
2019-05-25T19:30:23.560Z,14.89
2019-05-25T19:32:54.712Z,14.78
2019-05-25T19:35:26.159Z,14.68
2019-05-25T19:37:57.908Z,14.59
2019-05-25T19:40:29.511Z,14.50
2019-05-25T19:43:36.449Z,14.41
2019-05-25T19:46:07.659Z,14.34
2019-05-25T19:48:38.988Z,14.19
2019-05-25T19:51:10.213Z,14.10
2019-05-25T19:53:41.124Z,14.01
2019-05-25T19:56:12.393Z,13.94
2019-05-25T19:58:44.085Z,13.85
2019-05-25T20:01:14.966Z,13.78
2019-05-25T20:03:46.811Z,13.70
2019-05-25T20:06:18.092Z,13.61
2019-05-25T20:08:49.916Z,13.51
2019-05-25T20:11:21.565Z,13.41
2019-05-25T20:13:52.352Z,13.30
2019-05-25T20:20:45.899Z,13.10
2019-05-25T20:23:17.028Z,12.93
2019-05-25T20:25:48.205Z,12.76
2019-05-25T20:28:18.902Z,12.65
2019-05-25T20:30:50.082Z,12.55
2019-05-25T20:33:27.603Z,12.47
2019-05-25T20:35:54.707Z,12.37
2019-05-25T20:38:27.041Z,12.29
2019-05-25T20:41:05.099Z,12.20
2019-05-25T20:43:36.751Z,12.13
2019-05-25T20:46:08.077Z,12.05
2019-05-25T20:48:39.435Z,11.97
2019-05-25T20:51:10.967Z,11.89
2019-05-25T20:53:42.194Z,11.81
2019-05-25T20:56:14.238Z,11.75
2019-05-25T20:58:47.637Z,11.67
2019-05-25T21:02:11.978Z,11.60
2019-05-25T21:04:43.492Z,11.54
2019-05-25T21:07:14.960Z,11.44
2019-05-25T21:09:47.346Z,11.38
2019-05-25T21:12:18.594Z,11.32
2019-05-25T21:14:49.421Z,11.27
2019-05-25T21:17:20.841Z,11.24
2019-05-25T21:19:51.763Z,11.21
2019-05-25T21:22:23.017Z,11.19
2019-05-25T21:24:54.468Z,11.17
2019-05-25T21:27:25.241Z,11.16
2019-05-25T21:29:56.718Z,11.15
2019-05-25T21:32:27.619Z,11.13
2019-05-25T21:34:58.750Z,11.11
2019-05-25T21:37:29.837Z,11.08
2019-05-25T21:40:02.336Z,11.04
2019-05-25T21:42:40.205Z,10.99
2019-05-25T21:45:11.175Z,10.95
2019-05-25T21:47:40.995Z,10.90
2019-05-25T21:50:11.142Z,10.85
2019-05-25T21:52:40.659Z,10.82
2019-05-25T21:55:11.686Z,10.77
2019-05-25T21:57:42.550Z,10.72
2019-05-25T22:00:15.016Z,10.67
2019-05-25T22:02:43.843Z,10.63
2019-05-25T22:05:13.158Z,10.58
2019-05-25T22:07:42.571Z,10.52
2019-05-25T22:10:12.393Z,10.47
2019-05-25T22:12:42.583Z,10.43
2019-05-25T22:15:13.330Z,10.36
2019-05-25T22:17:42.207Z,10.31
2019-05-25T22:20:11.323Z,10.26
2019-05-25T22:22:40.981Z,10.22
2019-05-25T22:25:10.939Z,10.18
2019-05-25T22:27:40.354Z,10.14
2019-05-25T22:30:10.122Z,10.10
2019-05-25T22:32:39.814Z,10.07
2019-05-25T22:35:09.297Z,10.02
2019-05-25T22:37:37.953Z,10.00
2019-05-25T22:40:08.643Z,9.98
2019-05-25T22:42:37.256Z,9.95
2019-05-25T22:45:06.768Z,9.93
2019-05-25T22:47:35.208Z,9.90
2019-05-25T22:50:05.580Z,9.89
2019-05-25T22:52:34.164Z,9.86
2019-05-25T22:55:02.889Z,9.84
2019-05-25T22:57:31.827Z,9.82
2019-05-25T23:00:00.316Z,9.81
2019-05-25T23:02:28.836Z,9.80
2019-05-25T23:04:57.381Z,9.78
2019-05-25T23:07:25.824Z,9.78
2019-05-25T23:09:54.607Z,9.75
2019-05-25T23:12:23.146Z,9.74
2019-05-25T23:14:51.670Z,9.71
2019-05-25T23:17:20.159Z,9.71
2019-05-25T23:19:48.706Z,9.69
2019-05-25T23:22:17.298Z,9.68
2019-05-25T23:24:45.771Z,9.67
2019-05-25T23:27:16.160Z,9.66
2019-05-25T23:29:44.539Z,9.64
2019-05-25T23:32:13.091Z,9.63
2019-05-25T23:34:41.535Z,9.61
2019-05-25T23:37:14.578Z,9.59
2019-05-25T23:39:40.286Z,9.57
2019-05-25T23:42:08.810Z,9.56
2019-05-25T23:44:37.410Z,9.54
2019-05-25T23:47:06.102Z,9.52
2019-05-25T23:49:34.715Z,9.50
2019-05-25T23:52:03.329Z,9.49
2019-05-25T23:54:31.992Z,9.47
2019-05-25T23:57:00.623Z,9.46
2019-05-25T23:59:29.155Z,9.46
